sensor_id;sensor_type;location;lat;lon;timestamp;temperature;humidity
18446;DHT22;9352;50.888;4.466;2022-12-20T00:01:23;12.50;99.90
18446;DHT22;9352;50.888;4.466;2022-12-20T00:03:51;12.60;99.90
18446;DHT22;9352;50.888;4.466;2022-12-20T00:06:19;12.50;99.90
18446;DHT22;9352;50.888;4.466;2022-12-20T00:08:51;12.60;99.90
18446;DHT22;9352;50.888;4.466;2022-12-20T00:11:19;12.60;99.90
18446;DHT22;9352;50.888;4.466;2022-12-20T00:13:46;12.60;99.90
18446;DHT22;9352;50.888;4.466;2022-12-20T00:16:14;12.50;99.90
18446;DHT22;9352;50.888;4.466;2022-12-20T00:18:42;12.40;99.90
18446;DHT22;9352;50.888;4.466;2022-12-20T00:21:12;12.40;99.90
18446;DHT22;9352;50.888;4.466;2022-12-20T00:23:39;12.30;99.90
18446;DHT22;9352;50.888;4.466;2022-12-20T00:26:08;12.30;99.90
18446;DHT22;9352;50.888;4.466;2022-12-20T00:28:38;12.30;99.90
18446;DHT22;9352;50.888;4.466;2022-12-20T00:31:07;12.30;99.90
18446;DHT22;9352;50.888;4.466;2022-12-20T00:33:34;12.30;99.90
18446;DHT22;9352;50.888;4.466;2022-12-20T00:36:02;12.20;99.90
18446;DHT22;9352;50.888;4.466;2022-12-20T00:38:29;12.20;99.90
18446;DHT22;9352;50.888;4.466;2022-12-20T00:41:00;12.10;99.90
18446;DHT22;9352;50.888;4.466;2022-12-20T00:43:28;12.10;99.90
18446;DHT22;9352;50.888;4.466;2022-12-20T00:45:56;12.10;99.90
18446;DHT22;9352;50.888;4.466;2022-12-20T00:48:24;12.10;99.90
18446;DHT22;9352;50.888;4.466;2022-12-20T00:50:51;12.10;99.90
18446;DHT22;9352;50.888;4.466;2022-12-20T00:53:18;12.10;99.90
18446;DHT22;9352;50.888;4.466;2022-12-20T00:55:45;12.10;99.90
18446;DHT22;9352;50.888;4.466;2022-12-20T00:58:13;12.20;99.90
18446;DHT22;9352;50.888;4.466;2022-12-20T01:00:39;12.20;99.90
18446;DHT22;9352;50.888;4.466;2022-12-20T01:03:08;12.20;99.90
18446;DHT22;9352;50.888;4.466;2022-12-20T01:05:35;12.20;99.90
18446;DHT22;9352;50.888;4.466;2022-12-20T01:08:03;12.10;99.90
18446;DHT22;9352;50.888;4.466;2022-12-20T01:10:30;12.10;99.90
18446;DHT22;9352;50.888;4.466;2022-12-20T01:12:57;12.10;99.90
18446;DHT22;9352;50.888;4.466;2022-12-20T01:15:24;12.10;99.90
18446;DHT22;9352;50.888;4.466;2022-12-20T01:17:50;12.10;99.90
18446;DHT22;9352;50.888;4.466;2022-12-20T01:20:19;12.10;99.90
18446;DHT22;9352;50.888;4.466;2022-12-20T01:22:46;12.10;99.90
18446;DHT22;9352;50.888;4.466;2022-12-20T01:25:12;12.10;99.90
18446;DHT22;9352;50.888;4.466;2022-12-20T01:27:39;12.00;99.90
18446;DHT22;9352;50.888;4.466;2022-12-20T01:30:07;12.00;99.90
18446;DHT22;9352;50.888;4.466;2022-12-20T01:32:34;11.90;99.90
18446;DHT22;9352;50.888;4.466;2022-12-20T01:35:01;11.90;99.90
18446;DHT22;9352;50.888;4.466;2022-12-20T01:37:30;11.80;99.90
18446;DHT22;9352;50.888;4.466;2022-12-20T01:39:57;11.90;99.90
18446;DHT22;9352;50.888;4.466;2022-12-20T01:42:24;11.80;99.90
18446;DHT22;9352;50.888;4.466;2022-12-20T01:44:56;11.80;99.90
18446;DHT22;9352;50.888;4.466;2022-12-20T01:47:25;11.90;99.90
18446;DHT22;9352;50.888;4.466;2022-12-20T01:49:53;11.90;99.90
18446;DHT22;9352;50.888;4.466;2022-12-20T01:52:25;11.90;99.90
18446;DHT22;9352;50.888;4.466;2022-12-20T01:54:59;11.90;99.90
18446;DHT22;9352;50.888;4.466;2022-12-20T01:57:31;11.90;99.90
18446;DHT22;9352;50.888;4.466;2022-12-20T02:00:00;11.90;99.90
18446;DHT22;9352;50.888;4.466;2022-12-20T02:02:29;11.80;99.90
18446;DHT22;9352;50.888;4.466;2022-12-20T02:04:57;11.80;99.90
18446;DHT22;9352;50.888;4.466;2022-12-20T02:07:26;11.70;99.90
18446;DHT22;9352;50.888;4.466;2022-12-20T02:09:57;11.70;99.90
18446;DHT22;9352;50.888;4.466;2022-12-20T02:12:30;11.80;99.90
18446;DHT22;9352;50.888;4.466;2022-12-20T02:15:13;11.80;99.90
18446;DHT22;9352;50.888;4.466;2022-12-20T02:17:56;11.80;99.90
18446;DHT22;9352;50.888;4.466;2022-12-20T02:20:55;11.70;99.90
18446;DHT22;9352;50.888;4.466;2022-12-20T02:23:49;11.80;99.90
18446;DHT22;9352;50.888;4.466;2022-12-20T02:26:46;11.90;99.90
18446;DHT22;9352;50.888;4.466;2022-12-20T02:29:24;11.90;99.90
18446;DHT22;9352;50.888;4.466;2022-12-20T02:31:59;11.80;99.90
18446;DHT22;9352;50.888;4.466;2022-12-20T02:34:30;11.90;99.90
18446;DHT22;9352;50.888;4.466;2022-12-20T02:36:58;11.90;99.90
18446;DHT22;9352;50.888;4.466;2022-12-20T02:39:26;11.90;99.90
18446;DHT22;9352;50.888;4.466;2022-12-20T02:41:56;11.90;99.90
18446;DHT22;9352;50.888;4.466;2022-12-20T02:44:25;11.90;99.90
18446;DHT22;9352;50.888;4.466;2022-12-20T02:47:15;11.90;99.90
18446;DHT22;9352;50.888;4.466;2022-12-20T02:49:45;12.00;99.90
18446;DHT22;9352;50.888;4.466;2022-12-20T02:52:13;12.00;99.90
18446;DHT22;9352;50.888;4.466;2022-12-20T02:54:40;12.00;99.90
18446;DHT22;9352;50.888;4.466;2022-12-20T02:57:13;12.10;99.90
18446;DHT22;9352;50.888;4.466;2022-12-20T02:59:46;12.10;99.90
18446;DHT22;9352;50.888;4.466;2022-12-20T03:02:16;12.10;99.90
18446;DHT22;9352;50.888;4.466;2022-12-20T03:04:45;12.10;99.90
18446;DHT22;9352;50.888;4.466;2022-12-20T03:07:13;12.10;99.90
18446;DHT22;9352;50.888;4.466;2022-12-20T03:09:43;12.10;99.90
18446;DHT22;9352;50.888;4.466;2022-12-20T03:12:11;12.10;99.90
18446;DHT22;9352;50.888;4.466;2022-12-20T03:14:38;12.10;99.90
18446;DHT22;9352;50.888;4.466;2022-12-20T03:17:06;12.10;99.90
18446;DHT22;9352;50.888;4.466;2022-12-20T03:19:34;12.10;99.90
18446;DHT22;9352;50.888;4.466;2022-12-20T03:22:01;12.10;99.90
18446;DHT22;9352;50.888;4.466;2022-12-20T03:24:28;12.10;99.90
18446;DHT22;9352;50.888;4.466;2022-12-20T03:26:55;12.20;99.90
18446;DHT22;9352;50.888;4.466;2022-12-20T03:29:21;12.20;99.90
18446;DHT22;9352;50.888;4.466;2022-12-20T03:31:48;12.20;99.90
18446;DHT22;9352;50.888;4.466;2022-12-20T03:34:15;12.10;99.90
18446;DHT22;9352;50.888;4.466;2022-12-20T03:36:43;12.20;99.90
18446;DHT22;9352;50.888;4.466;2022-12-20T03:39:10;12.20;99.90
18446;DHT22;9352;50.888;4.466;2022-12-20T03:41:37;12.20;99.90
18446;DHT22;9352;50.888;4.466;2022-12-20T03:44:04;12.20;99.90
18446;DHT22;9352;50.888;4.466;2022-12-20T03:46:31;12.10;99.90
18446;DHT22;9352;50.888;4.466;2022-12-20T03:48:58;12.10;99.90
18446;DHT22;9352;50.888;4.466;2022-12-20T03:51:25;12.20;99.90
18446;DHT22;9352;50.888;4.466;2022-12-20T03:53:53;12.20;99.90
18446;DHT22;9352;50.888;4.466;2022-12-20T03:56:20;12.20;99.90
18446;DHT22;9352;50.888;4.466;2022-12-20T03:58:47;12.10;99.90
18446;DHT22;9352;50.888;4.466;2022-12-20T04:01:21;12.10;99.90
18446;DHT22;9352;50.888;4.466;2022-12-20T04:03:48;12.00;99.90
18446;DHT22;9352;50.888;4.466;2022-12-20T04:06:16;12.00;99.90
18446;DHT22;9352;50.888;4.466;2022-12-20T04:08:43;12.00;99.90
18446;DHT22;9352;50.888;4.466;2022-12-20T04:11:12;12.00;99.90
18446;DHT22;9352;50.888;4.466;2022-12-20T04:13:41;12.00;99.90
18446;DHT22;9352;50.888;4.466;2022-12-20T04:16:08;12.00;99.90
18446;DHT22;9352;50.888;4.466;2022-12-20T04:18:35;11.90;99.90
18446;DHT22;9352;50.888;4.466;2022-12-20T04:21:03;11.90;99.90
18446;DHT22;9352;50.888;4.466;2022-12-20T04:23:31;11.90;99.90
18446;DHT22;9352;50.888;4.466;2022-12-20T04:25:59;11.90;99.90
18446;DHT22;9352;50.888;4.466;2022-12-20T04:28:27;11.90;99.90
18446;DHT22;9352;50.888;4.466;2022-12-20T04:30:54;11.90;99.90
18446;DHT22;9352;50.888;4.466;2022-12-20T04:33:21;11.90;99.90
18446;DHT22;9352;50.888;4.466;2022-12-20T04:35:49;11.90;99.90
18446;DHT22;9352;50.888;4.466;2022-12-20T04:38:16;11.90;99.90
18446;DHT22;9352;50.888;4.466;2022-12-20T04:40:43;11.90;99.90
18446;DHT22;9352;50.888;4.466;2022-12-20T04:43:10;11.90;99.90
18446;DHT22;9352;50.888;4.466;2022-12-20T04:45:38;11.90;99.90
18446;DHT22;9352;50.888;4.466;2022-12-20T04:48:05;11.90;99.90
18446;DHT22;9352;50.888;4.466;2022-12-20T04:50:32;11.80;99.90
18446;DHT22;9352;50.888;4.466;2022-12-20T04:52:59;11.80;99.90
18446;DHT22;9352;50.888;4.466;2022-12-20T04:55:43;11.80;99.90
18446;DHT22;9352;50.888;4.466;2022-12-20T04:58:10;11.70;99.90
18446;DHT22;9352;50.888;4.466;2022-12-20T05:00:38;11.70;99.90
18446;DHT22;9352;50.888;4.466;2022-12-20T05:03:05;11.80;99.90
18446;DHT22;9352;50.888;4.466;2022-12-20T05:05:32;11.80;99.90
18446;DHT22;9352;50.888;4.466;2022-12-20T05:07:59;11.80;99.90
18446;DHT22;9352;50.888;4.466;2022-12-20T05:10:26;11.80;99.90
18446;DHT22;9352;50.888;4.466;2022-12-20T05:12:53;11.80;99.90
18446;DHT22;9352;50.888;4.466;2022-12-20T05:15:20;11.80;99.90
18446;DHT22;9352;50.888;4.466;2022-12-20T05:17:48;11.80;99.90
18446;DHT22;9352;50.888;4.466;2022-12-20T05:20:15;11.80;99.90
18446;DHT22;9352;50.888;4.466;2022-12-20T05:22:42;11.80;99.90
18446;DHT22;9352;50.888;4.466;2022-12-20T05:25:27;11.80;99.90
18446;DHT22;9352;50.888;4.466;2022-12-20T05:28:36;11.80;99.90
18446;DHT22;9352;50.888;4.466;2022-12-20T05:31:03;11.80;99.90
18446;DHT22;9352;50.888;4.466;2022-12-20T05:33:31;11.80;99.90
18446;DHT22;9352;50.888;4.466;2022-12-20T05:35:58;11.80;99.90
18446;DHT22;9352;50.888;4.466;2022-12-20T05:38:25;11.80;99.90
18446;DHT22;9352;50.888;4.466;2022-12-20T05:40:52;11.80;99.90
18446;DHT22;9352;50.888;4.466;2022-12-20T05:43:19;11.80;99.90
18446;DHT22;9352;50.888;4.466;2022-12-20T05:45:46;11.80;99.90
18446;DHT22;9352;50.888;4.466;2022-12-20T05:48:14;11.80;99.90
18446;DHT22;9352;50.888;4.466;2022-12-20T05:50:43;11.80;99.90
18446;DHT22;9352;50.888;4.466;2022-12-20T05:53:11;11.80;99.90
18446;DHT22;9352;50.888;4.466;2022-12-20T05:55:42;11.80;99.90
18446;DHT22;9352;50.888;4.466;2022-12-20T05:58:10;11.70;99.90
18446;DHT22;9352;50.888;4.466;2022-12-20T06:00:39;11.80;99.90
18446;DHT22;9352;50.888;4.466;2022-12-20T06:03:06;11.80;99.90
18446;DHT22;9352;50.888;4.466;2022-12-20T06:05:34;11.80;99.90
18446;DHT22;9352;50.888;4.466;2022-12-20T06:08:02;11.80;99.90
18446;DHT22;9352;50.888;4.466;2022-12-20T06:10:30;11.70;99.90
18446;DHT22;9352;50.888;4.466;2022-12-20T06:12:56;11.80;99.90
18446;DHT22;9352;50.888;4.466;2022-12-20T06:15:24;11.70;99.90
18446;DHT22;9352;50.888;4.466;2022-12-20T06:17:51;11.70;99.90
18446;DHT22;9352;50.888;4.466;2022-12-20T06:20:18;11.80;99.90
18446;DHT22;9352;50.888;4.466;2022-12-20T06:22:45;11.70;99.90
18446;DHT22;9352;50.888;4.466;2022-12-20T06:25:13;11.70;99.90
18446;DHT22;9352;50.888;4.466;2022-12-20T06:27:40;11.70;99.90
18446;DHT22;9352;50.888;4.466;2022-12-20T06:30:10;11.70;99.90
18446;DHT22;9352;50.888;4.466;2022-12-20T06:32:37;11.80;99.90
18446;DHT22;9352;50.888;4.466;2022-12-20T06:35:05;11.90;99.90
18446;DHT22;9352;50.888;4.466;2022-12-20T06:37:32;11.90;99.90
18446;DHT22;9352;50.888;4.466;2022-12-20T06:39:58;12.00;99.90
18446;DHT22;9352;50.888;4.466;2022-12-20T06:42:27;12.00;99.90
18446;DHT22;9352;50.888;4.466;2022-12-20T06:44:54;12.10;99.90
18446;DHT22;9352;50.888;4.466;2022-12-20T06:47:20;12.10;99.90
18446;DHT22;9352;50.888;4.466;2022-12-20T06:49:47;12.10;99.90
18446;DHT22;9352;50.888;4.466;2022-12-20T06:52:14;12.20;99.90
18446;DHT22;9352;50.888;4.466;2022-12-20T06:54:41;12.20;99.90
18446;DHT22;9352;50.888;4.466;2022-12-20T06:57:08;12.20;99.90
18446;DHT22;9352;50.888;4.466;2022-12-20T06:59:36;12.30;99.90
18446;DHT22;9352;50.888;4.466;2022-12-20T07:02:03;12.40;99.90
18446;DHT22;9352;50.888;4.466;2022-12-20T07:04:30;12.40;99.90
18446;DHT22;9352;50.888;4.466;2022-12-20T07:06:57;12.40;99.90
18446;DHT22;9352;50.888;4.466;2022-12-20T07:09:24;12.40;99.90
18446;DHT22;9352;50.888;4.466;2022-12-20T07:11:51;12.40;99.90
18446;DHT22;9352;50.888;4.466;2022-12-20T07:14:18;12.40;99.90
18446;DHT22;9352;50.888;4.466;2022-12-20T07:16:46;12.30;99.90
18446;DHT22;9352;50.888;4.466;2022-12-20T07:19:13;12.30;99.90
18446;DHT22;9352;50.888;4.466;2022-12-20T07:21:41;12.30;99.90
18446;DHT22;9352;50.888;4.466;2022-12-20T07:24:08;12.20;99.90
18446;DHT22;9352;50.888;4.466;2022-12-20T07:26:35;12.20;99.90
18446;DHT22;9352;50.888;4.466;2022-12-20T07:29:02;12.10;99.90
18446;DHT22;9352;50.888;4.466;2022-12-20T07:31:29;12.10;99.90
18446;DHT22;9352;50.888;4.466;2022-12-20T07:33:57;12.00;99.90
18446;DHT22;9352;50.888;4.466;2022-12-20T07:36:24;12.00;99.90
18446;DHT22;9352;50.888;4.466;2022-12-20T07:38:51;11.90;99.90
18446;DHT22;9352;50.888;4.466;2022-12-20T07:41:18;11.80;99.90
18446;DHT22;9352;50.888;4.466;2022-12-20T07:43:45;11.70;99.90
18446;DHT22;9352;50.888;4.466;2022-12-20T07:46:13;11.60;99.90
18446;DHT22;9352;50.888;4.466;2022-12-20T07:48:41;11.60;99.90
18446;DHT22;9352;50.888;4.466;2022-12-20T07:51:12;11.50;99.90
18446;DHT22;9352;50.888;4.466;2022-12-20T07:53:43;11.40;99.90
18446;DHT22;9352;50.888;4.466;2022-12-20T07:56:12;11.40;99.90
18446;DHT22;9352;50.888;4.466;2022-12-20T07:58:41;11.30;99.90
18446;DHT22;9352;50.888;4.466;2022-12-20T08:01:09;11.30;99.90
18446;DHT22;9352;50.888;4.466;2022-12-20T08:03:40;11.40;99.90
18446;DHT22;9352;50.888;4.466;2022-12-20T08:06:09;11.30;99.90
18446;DHT22;9352;50.888;4.466;2022-12-20T08:08:40;11.30;99.90
18446;DHT22;9352;50.888;4.466;2022-12-20T08:11:09;11.30;99.90
18446;DHT22;9352;50.888;4.466;2022-12-20T08:13:36;11.40;99.90
18446;DHT22;9352;50.888;4.466;2022-12-20T08:16:05;11.40;99.90
18446;DHT22;9352;50.888;4.466;2022-12-20T08:18:32;11.30;99.90
18446;DHT22;9352;50.888;4.466;2022-12-20T08:20:59;11.30;99.90
18446;DHT22;9352;50.888;4.466;2022-12-20T08:23:28;11.30;99.90
18446;DHT22;9352;50.888;4.466;2022-12-20T08:25:54;11.30;99.90
18446;DHT22;9352;50.888;4.466;2022-12-20T08:28:22;11.30;99.90
18446;DHT22;9352;50.888;4.466;2022-12-20T08:30:49;11.30;99.90
18446;DHT22;9352;50.888;4.466;2022-12-20T08:33:16;11.30;99.90
18446;DHT22;9352;50.888;4.466;2022-12-20T08:35:43;11.30;99.90
18446;DHT22;9352;50.888;4.466;2022-12-20T08:38:10;11.30;99.90
18446;DHT22;9352;50.888;4.466;2022-12-20T08:40:38;11.30;99.90
18446;DHT22;9352;50.888;4.466;2022-12-20T08:43:05;11.30;99.90
18446;DHT22;9352;50.888;4.466;2022-12-20T08:45:32;11.30;99.90
18446;DHT22;9352;50.888;4.466;2022-12-20T08:47:59;11.40;99.90
18446;DHT22;9352;50.888;4.466;2022-12-20T08:50:27;11.40;99.90
18446;DHT22;9352;50.888;4.466;2022-12-20T08:52:54;11.50;99.90
18446;DHT22;9352;50.888;4.466;2022-12-20T08:55:21;11.50;99.90
18446;DHT22;9352;50.888;4.466;2022-12-20T08:57:49;11.50;99.90
18446;DHT22;9352;50.888;4.466;2022-12-20T09:00:16;11.60;99.90
18446;DHT22;9352;50.888;4.466;2022-12-20T09:02:43;11.60;99.90
18446;DHT22;9352;50.888;4.466;2022-12-20T09:05:11;11.70;99.90
18446;DHT22;9352;50.888;4.466;2022-12-20T09:07:38;11.70;99.90
18446;DHT22;9352;50.888;4.466;2022-12-20T09:10:06;11.70;99.90
18446;DHT22;9352;50.888;4.466;2022-12-20T09:12:36;11.70;99.90
18446;DHT22;9352;50.888;4.466;2022-12-20T09:15:06;11.70;99.90
18446;DHT22;9352;50.888;4.466;2022-12-20T09:17:33;11.70;99.90
18446;DHT22;9352;50.888;4.466;2022-12-20T09:20:00;11.80;99.90
18446;DHT22;9352;50.888;4.466;2022-12-20T09:22:27;11.80;99.90
18446;DHT22;9352;50.888;4.466;2022-12-20T09:24:54;11.90;99.90
18446;DHT22;9352;50.888;4.466;2022-12-20T09:27:21;11.90;99.90
18446;DHT22;9352;50.888;4.466;2022-12-20T09:29:48;12.00;99.90
18446;DHT22;9352;50.888;4.466;2022-12-20T09:32:16;12.00;99.90
18446;DHT22;9352;50.888;4.466;2022-12-20T09:34:43;12.10;99.90
18446;DHT22;9352;50.888;4.466;2022-12-20T09:37:11;12.10;99.90
18446;DHT22;9352;50.888;4.466;2022-12-20T09:39:38;12.20;99.90
18446;DHT22;9352;50.888;4.466;2022-12-20T09:42:06;12.10;99.90
18446;DHT22;9352;50.888;4.466;2022-12-20T09:44:35;12.10;99.90
18446;DHT22;9352;50.888;4.466;2022-12-20T09:47:08;12.00;99.90
18446;DHT22;9352;50.888;4.466;2022-12-20T09:49:40;12.00;99.90
18446;DHT22;9352;50.888;4.466;2022-12-20T09:52:29;11.90;99.90
18446;DHT22;9352;50.888;4.466;2022-12-20T09:55:08;11.90;99.90
18446;DHT22;9352;50.888;4.466;2022-12-20T09:57:47;11.80;99.90
18446;DHT22;9352;50.888;4.466;2022-12-20T10:00:18;11.80;99.90
18446;DHT22;9352;50.888;4.466;2022-12-20T10:02:45;11.80;99.90
18446;DHT22;9352;50.888;4.466;2022-12-20T10:05:15;11.70;99.90
18446;DHT22;9352;50.888;4.466;2022-12-20T10:07:51;11.70;99.90
18446;DHT22;9352;50.888;4.466;2022-12-20T10:13:37;11.70;99.90
18446;DHT22;9352;50.888;4.466;2022-12-20T10:16:16;11.70;99.90
18446;DHT22;9352;50.888;4.466;2022-12-20T10:18:55;11.60;99.90
18446;DHT22;9352;50.888;4.466;2022-12-20T10:21:35;11.70;99.90
18446;DHT22;9352;50.888;4.466;2022-12-20T10:24:11;11.70;99.90
18446;DHT22;9352;50.888;4.466;2022-12-20T10:26:39;11.70;99.90
18446;DHT22;9352;50.888;4.466;2022-12-20T10:29:06;11.70;99.90
18446;DHT22;9352;50.888;4.466;2022-12-20T10:31:33;11.70;99.90
18446;DHT22;9352;50.888;4.466;2022-12-20T10:34:00;11.70;99.90
18446;DHT22;9352;50.888;4.466;2022-12-20T10:36:30;11.70;99.90
18446;DHT22;9352;50.888;4.466;2022-12-20T10:38:59;11.70;99.90
18446;DHT22;9352;50.888;4.466;2022-12-20T10:41:28;11.80;99.90
18446;DHT22;9352;50.888;4.466;2022-12-20T10:43:59;11.80;99.90
18446;DHT22;9352;50.888;4.466;2022-12-20T10:46:38;11.80;99.90
18446;DHT22;9352;50.888;4.466;2022-12-20T10:49:28;11.80;99.90
18446;DHT22;9352;50.888;4.466;2022-12-20T10:51:59;11.80;99.90
18446;DHT22;9352;50.888;4.466;2022-12-20T10:54:32;11.80;99.90
18446;DHT22;9352;50.888;4.466;2022-12-20T10:57:02;11.80;99.90
18446;DHT22;9352;50.888;4.466;2022-12-20T10:59:33;11.80;99.90
18446;DHT22;9352;50.888;4.466;2022-12-20T11:02:02;11.70;99.90
18446;DHT22;9352;50.888;4.466;2022-12-20T11:04:31;11.80;99.90
18446;DHT22;9352;50.888;4.466;2022-12-20T11:07:02;11.70;99.90
18446;DHT22;9352;50.888;4.466;2022-12-20T11:09:30;11.70;99.90
18446;DHT22;9352;50.888;4.466;2022-12-20T11:12:01;11.70;99.90
18446;DHT22;9352;50.888;4.466;2022-12-20T11:14:30;11.70;99.90
18446;DHT22;9352;50.888;4.466;2022-12-20T11:16:58;11.70;99.90
18446;DHT22;9352;50.888;4.466;2022-12-20T11:19:35;11.70;99.90
18446;DHT22;9352;50.888;4.466;2022-12-20T11:22:16;11.70;99.90
18446;DHT22;9352;50.888;4.466;2022-12-20T11:24:53;11.70;99.90
18446;DHT22;9352;50.888;4.466;2022-12-20T11:27:29;11.70;99.90
18446;DHT22;9352;50.888;4.466;2022-12-20T11:30:05;11.60;99.90
18446;DHT22;9352;50.888;4.466;2022-12-20T11:33:02;11.60;99.90
18446;DHT22;9352;50.888;4.466;2022-12-20T11:35:41;11.60;99.90
18446;DHT22;9352;50.888;4.466;2022-12-20T11:38:21;11.60;99.90
18446;DHT22;9352;50.888;4.466;2022-12-20T11:40:54;11.60;99.90
18446;DHT22;9352;50.888;4.466;2022-12-20T11:43:39;11.70;99.90
18446;DHT22;9352;50.888;4.466;2022-12-20T11:46:19;11.60;99.90
18446;DHT22;9352;50.888;4.466;2022-12-20T11:49:21;11.60;99.90
18446;DHT22;9352;50.888;4.466;2022-12-20T11:51:57;11.60;99.90
18446;DHT22;9352;50.888;4.466;2022-12-20T11:54:32;11.50;99.90
18446;DHT22;9352;50.888;4.466;2022-12-20T11:57:03;11.50;99.90
18446;DHT22;9352;50.888;4.466;2022-12-20T11:59:36;11.50;99.90
18446;DHT22;9352;50.888;4.466;2022-12-20T12:02:10;11.50;99.90
18446;DHT22;9352;50.888;4.466;2022-12-20T12:04:41;11.50;99.90
18446;DHT22;9352;50.888;4.466;2022-12-20T12:07:12;11.50;99.90
18446;DHT22;9352;50.888;4.466;2022-12-20T12:09:50;11.40;99.90
18446;DHT22;9352;50.888;4.466;2022-12-20T12:12:24;11.50;99.90
18446;DHT22;9352;50.888;4.466;2022-12-20T12:14:58;11.40;99.90
18446;DHT22;9352;50.888;4.466;2022-12-20T12:17:34;11.40;99.90
18446;DHT22;9352;50.888;4.466;2022-12-20T12:20:24;11.30;99.90
18446;DHT22;9352;50.888;4.466;2022-12-20T12:22:56;11.30;99.90
18446;DHT22;9352;50.888;4.466;2022-12-20T12:25:26;11.30;99.90
18446;DHT22;9352;50.888;4.466;2022-12-20T12:27:53;11.20;99.90
18446;DHT22;9352;50.888;4.466;2022-12-20T12:30:20;11.20;99.90
18446;DHT22;9352;50.888;4.466;2022-12-20T12:32:52;11.20;99.90
18446;DHT22;9352;50.888;4.466;2022-12-20T12:44:38;11.20;99.90
18446;DHT22;9352;50.888;4.466;2022-12-20T12:47:12;11.20;99.90
18446;DHT22;9352;50.888;4.466;2022-12-20T12:49:42;11.10;99.90
18446;DHT22;9352;50.888;4.466;2022-12-20T12:52:27;11.10;99.90
18446;DHT22;9352;50.888;4.466;2022-12-20T12:54:55;11.10;99.90
18446;DHT22;9352;50.888;4.466;2022-12-20T12:57:22;11.10;99.90
18446;DHT22;9352;50.888;4.466;2022-12-20T12:59:50;11.10;99.90
18446;DHT22;9352;50.888;4.466;2022-12-20T13:02:32;11.10;99.90
18446;DHT22;9352;50.888;4.466;2022-12-20T13:05:28;11.10;99.90
18446;DHT22;9352;50.888;4.466;2022-12-20T13:07:49;11.10;99.90
18446;DHT22;9352;50.888;4.466;2022-12-20T13:13:32;11.10;99.90
18446;DHT22;9352;50.888;4.466;2022-12-20T13:16:11;11.00;99.90
18446;DHT22;9352;50.888;4.466;2022-12-20T13:19:10;11.00;99.90
18446;DHT22;9352;50.888;4.466;2022-12-20T13:21:39;11.00;99.90
18446;DHT22;9352;50.888;4.466;2022-12-20T13:27:29;11.00;99.90
18446;DHT22;9352;50.888;4.466;2022-12-20T13:30:24;11.00;99.90
18446;DHT22;9352;50.888;4.466;2022-12-20T13:33:18;11.10;99.90
18446;DHT22;9352;50.888;4.466;2022-12-20T13:35:56;11.10;99.90
18446;DHT22;9352;50.888;4.466;2022-12-20T13:38:52;11.10;99.90
18446;DHT22;9352;50.888;4.466;2022-12-20T13:41:40;11.10;99.90
18446;DHT22;9352;50.888;4.466;2022-12-20T13:44:33;11.10;99.90
18446;DHT22;9352;50.888;4.466;2022-12-20T13:47:05;11.10;99.90
18446;DHT22;9352;50.888;4.466;2022-12-20T13:49:40;11.10;99.90
18446;DHT22;9352;50.888;4.466;2022-12-20T13:52:23;11.10;99.90
18446;DHT22;9352;50.888;4.466;2022-12-20T13:54:53;11.20;99.90
18446;DHT22;9352;50.888;4.466;2022-12-20T13:57:27;11.20;99.90
18446;DHT22;9352;50.888;4.466;2022-12-20T13:59:57;11.20;99.90
18446;DHT22;9352;50.888;4.466;2022-12-20T14:02:28;11.20;99.90
18446;DHT22;9352;50.888;4.466;2022-12-20T14:05:00;11.20;99.90
18446;DHT22;9352;50.888;4.466;2022-12-20T14:07:28;11.20;99.90
18446;DHT22;9352;50.888;4.466;2022-12-20T14:09:58;11.20;99.90
18446;DHT22;9352;50.888;4.466;2022-12-20T14:12:26;11.20;99.90
18446;DHT22;9352;50.888;4.466;2022-12-20T14:14:54;11.20;99.90
18446;DHT22;9352;50.888;4.466;2022-12-20T14:17:24;11.20;99.90
18446;DHT22;9352;50.888;4.466;2022-12-20T14:20:04;11.20;99.90
18446;DHT22;9352;50.888;4.466;2022-12-20T14:22:33;11.20;99.90
18446;DHT22;9352;50.888;4.466;2022-12-20T14:25:01;11.10;99.90
18446;DHT22;9352;50.888;4.466;2022-12-20T14:27:33;11.10;99.90
18446;DHT22;9352;50.888;4.466;2022-12-20T14:30:01;11.10;99.90
18446;DHT22;9352;50.888;4.466;2022-12-20T14:32:28;11.10;99.90
18446;DHT22;9352;50.888;4.466;2022-12-20T14:34:55;11.10;99.90
18446;DHT22;9352;50.888;4.466;2022-12-20T14:37:30;11.10;99.90
18446;DHT22;9352;50.888;4.466;2022-12-20T14:40:01;11.10;99.90
18446;DHT22;9352;50.888;4.466;2022-12-20T14:42:33;11.10;99.90
18446;DHT22;9352;50.888;4.466;2022-12-20T14:45:14;11.10;99.90
18446;DHT22;9352;50.888;4.466;2022-12-20T14:47:49;11.10;99.90
18446;DHT22;9352;50.888;4.466;2022-12-20T14:50:19;11.10;99.90
18446;DHT22;9352;50.888;4.466;2022-12-20T14:52:47;11.10;99.90
18446;DHT22;9352;50.888;4.466;2022-12-20T14:55:17;11.10;99.90
18446;DHT22;9352;50.888;4.466;2022-12-20T14:57:47;11.10;99.90
18446;DHT22;9352;50.888;4.466;2022-12-20T15:00:21;11.10;99.90
18446;DHT22;9352;50.888;4.466;2022-12-20T15:02:51;11.10;99.90
18446;DHT22;9352;50.888;4.466;2022-12-20T15:05:51;11.10;99.90
18446;DHT22;9352;50.888;4.466;2022-12-20T15:08:22;11.10;99.90
18446;DHT22;9352;50.888;4.466;2022-12-20T15:10:57;11.10;99.90
18446;DHT22;9352;50.888;4.466;2022-12-20T15:13:31;11.00;99.90
18446;DHT22;9352;50.888;4.466;2022-12-20T15:15:59;11.00;99.90
18446;DHT22;9352;50.888;4.466;2022-12-20T15:18:27;11.00;99.90
18446;DHT22;9352;50.888;4.466;2022-12-20T15:21:02;11.00;99.90
18446;DHT22;9352;50.888;4.466;2022-12-20T15:23:32;11.00;99.90
18446;DHT22;9352;50.888;4.466;2022-12-20T15:25:59;11.00;99.90
18446;DHT22;9352;50.888;4.466;2022-12-20T15:28:26;11.00;99.90
18446;DHT22;9352;50.888;4.466;2022-12-20T15:30:54;11.00;99.90
18446;DHT22;9352;50.888;4.466;2022-12-20T15:33:24;11.00;99.90
18446;DHT22;9352;50.888;4.466;2022-12-20T15:35:51;11.00;99.90
18446;DHT22;9352;50.888;4.466;2022-12-20T15:38:20;11.00;99.90
18446;DHT22;9352;50.888;4.466;2022-12-20T15:40:51;11.00;99.90
18446;DHT22;9352;50.888;4.466;2022-12-20T15:43:20;11.00;99.90
18446;DHT22;9352;50.888;4.466;2022-12-20T15:45:51;11.00;99.90
18446;DHT22;9352;50.888;4.466;2022-12-20T15:48:20;11.00;99.90
18446;DHT22;9352;50.888;4.466;2022-12-20T15:50:50;10.90;99.90
18446;DHT22;9352;50.888;4.466;2022-12-20T15:53:21;10.90;99.90
18446;DHT22;9352;50.888;4.466;2022-12-20T15:55:54;11.00;99.90
18446;DHT22;9352;50.888;4.466;2022-12-20T15:58:21;10.90;99.90
18446;DHT22;9352;50.888;4.466;2022-12-20T16:00:49;10.90;99.90
18446;DHT22;9352;50.888;4.466;2022-12-20T16:03:20;10.90;99.90
18446;DHT22;9352;50.888;4.466;2022-12-20T16:05:48;11.00;99.90
18446;DHT22;9352;50.888;4.466;2022-12-20T16:08:15;10.90;99.90
18446;DHT22;9352;50.888;4.466;2022-12-20T16:10:43;10.90;99.90
18446;DHT22;9352;50.888;4.466;2022-12-20T16:13:14;10.90;99.90
18446;DHT22;9352;50.888;4.466;2022-12-20T16:15:42;10.90;99.90
18446;DHT22;9352;50.888;4.466;2022-12-20T16:18:09;10.90;99.90
18446;DHT22;9352;50.888;4.466;2022-12-20T16:20:35;10.90;99.90
18446;DHT22;9352;50.888;4.466;2022-12-20T16:23:03;10.90;99.90
18446;DHT22;9352;50.888;4.466;2022-12-20T16:25:34;10.90;99.90